createdAt,value
2022-10-04T00:00:10.271Z,2.17
2022-10-04T00:02:12.369Z,2.47
2022-10-04T00:04:26.448Z,2.50
2022-10-04T00:06:29.479Z,3.28
2022-10-04T00:09:09.499Z,2.10
2022-10-04T00:11:17.778Z,2.45
2022-10-04T00:13:25.776Z,2.20
2022-10-04T00:15:37.487Z,2.30
2022-10-04T00:17:39.836Z,2.22
2022-10-04T00:19:47.933Z,2.30
2022-10-04T00:21:56.466Z,2.40
2022-10-04T00:24:11.389Z,2.53
2022-10-04T00:26:35.668Z,2.40
2022-10-04T00:28:37.737Z,2.17
2022-10-04T00:30:40.516Z,2.50
2022-10-04T00:32:42.524Z,2.10
2022-10-04T00:34:50.945Z,2.40
2022-10-04T00:36:57.112Z,2.45
2022-10-04T00:39:05.602Z,2.33
2022-10-04T00:41:10.302Z,3.05
2022-10-04T00:43:15.429Z,2.60
2022-10-04T00:45:25.391Z,2.33
2022-10-04T00:47:48.703Z,2.40
2022-10-04T00:49:59.369Z,2.17
2022-10-04T00:52:15.710Z,2.05
2022-10-04T00:54:35.323Z,2.28
2022-10-04T00:57:01.767Z,2.22
2022-10-04T00:59:25.103Z,2.25
2022-10-04T01:01:29.504Z,3.17
2022-10-04T01:03:42.835Z,2.63
2022-10-04T01:05:51.135Z,2.60
2022-10-04T01:08:15.971Z,2.35
2022-10-04T01:10:27.746Z,2.40
2022-10-04T01:12:42.634Z,2.95
2022-10-04T01:15:00.049Z,2.90
2022-10-04T01:17:04.099Z,2.53
2022-10-04T01:19:31.294Z,2.72
2022-10-04T01:21:35.498Z,2.63
2022-10-04T01:23:41.672Z,3.10
2022-10-04T01:25:50.887Z,2.50
2022-10-04T01:27:53.222Z,3.20
2022-10-04T01:32:00.053Z,2.80
2022-10-04T01:34:05.255Z,2.55
2022-10-04T01:36:07.609Z,3.05
2022-10-04T01:40:12.224Z,3.33
2022-10-04T01:42:26.956Z,3.40
2022-10-04T01:44:39.824Z,2.83
2022-10-04T01:46:42.295Z,2.70
2022-10-04T01:48:46.968Z,2.80
2022-10-04T01:50:59.119Z,3.00
2022-10-04T01:53:16.803Z,3.92
2022-10-04T01:55:29.290Z,3.20
2022-10-04T01:59:46.694Z,3.25
2022-10-04T02:02:00.163Z,3.90
2022-10-04T02:04:12.842Z,3.55
2022-10-04T02:06:16.456Z,3.53
2022-10-04T02:08:26.198Z,3.53
2022-10-04T02:10:30.457Z,3.63
2022-10-04T02:12:34.990Z,3.28
2022-10-04T02:14:39.780Z,3.58
2022-10-04T02:16:46.668Z,3.28
2022-10-04T02:18:51.116Z,3.47
2022-10-04T02:20:55.276Z,3.90
2022-10-04T02:23:03.190Z,3.65
2022-10-04T02:25:06.405Z,3.80
2022-10-04T02:27:08.753Z,4.43
2022-10-04T02:29:10.997Z,3.78
2022-10-04T02:31:31.510Z,3.70
2022-10-04T02:33:38.623Z,4.65
2022-10-04T02:35:49.136Z,3.88
2022-10-04T02:37:59.220Z,3.80
2022-10-04T02:40:16.297Z,4.60
2022-10-04T02:42:22.438Z,4.45
2022-10-04T02:45:00.125Z,5.28
2022-10-04T02:47:16.578Z,4.05
2022-10-04T02:49:30.048Z,4.30
2022-10-04T02:51:38.733Z,3.78
2022-10-04T02:54:03.364Z,3.85
2022-10-04T02:56:06.806Z,4.93
2022-10-04T02:58:14.571Z,4.10
2022-10-04T03:00:16.792Z,4.38
2022-10-04T03:02:30.082Z,5.07
2022-10-04T03:04:38.706Z,4.82
2022-10-04T03:06:44.148Z,4.75
2022-10-04T03:08:51.656Z,4.90
2022-10-04T03:10:54.095Z,4.60
2022-10-04T03:12:59.521Z,4.65
2022-10-04T03:15:01.748Z,4.70
2022-10-04T03:17:07.373Z,5.18
2022-10-04T03:19:11.430Z,4.78
2022-10-04T03:21:16.151Z,4.60
2022-10-04T03:23:20.107Z,4.32
2022-10-04T03:25:42.008Z,4.72
2022-10-04T03:27:44.750Z,4.15
2022-10-04T03:29:47.562Z,4.78
2022-10-04T03:31:52.450Z,4.63
2022-10-04T03:33:57.401Z,5.20
2022-10-04T03:36:00.964Z,4.30
2022-10-04T03:38:09.066Z,4.40
2022-10-04T03:40:12.615Z,4.57
2022-10-04T03:42:25.792Z,4.32
2022-10-04T03:44:28.222Z,5.10
2022-10-04T03:48:39.555Z,4.70
2022-10-04T03:50:48.168Z,4.97
2022-10-04T03:52:57.185Z,4.72
2022-10-04T03:55:03.510Z,5.55
2022-10-04T03:57:07.570Z,4.65
2022-10-04T03:59:18.016Z,4.43
2022-10-04T04:01:45.076Z,5.32
2022-10-04T04:03:53.848Z,4.75
2022-10-04T04:06:03.230Z,4.72
2022-10-04T04:08:12.980Z,4.75
2022-10-04T04:10:28.410Z,4.50
2022-10-04T04:12:44.264Z,4.50
2022-10-04T04:14:52.304Z,4.60
2022-10-04T04:17:15.907Z,4.68
2022-10-04T04:19:22.876Z,4.93
2022-10-04T04:21:26.884Z,4.35
2022-10-04T04:23:40.050Z,4.00
2022-10-04T04:25:46.131Z,4.07
2022-10-04T04:27:50.566Z,4.20
2022-10-04T04:29:53.427Z,4.45
2022-10-04T04:32:01.579Z,3.60
2022-10-04T04:34:16.744Z,3.85
2022-10-04T04:36:19.226Z,3.22
2022-10-04T04:38:24.762Z,3.00
2022-10-04T04:40:26.856Z,3.30
2022-10-04T04:42:35.040Z,3.05
2022-10-04T04:44:53.882Z,2.90
2022-10-04T04:46:56.936Z,2.72
2022-10-04T04:49:05.859Z,2.88
2022-10-04T04:51:08.108Z,2.65
2022-10-04T04:53:16.522Z,1.73
2022-10-04T04:55:21.195Z,2.33
2022-10-04T04:57:24.890Z,2.90
2022-10-04T04:59:28.377Z,3.45
2022-10-04T05:01:42.277Z,2.60
2022-10-04T05:03:44.535Z,2.08
2022-10-04T05:05:48.157Z,2.60
2022-10-04T05:08:07.618Z,2.42
2022-10-04T05:10:34.004Z,2.30
2022-10-04T05:12:37.085Z,2.60
2022-10-04T05:14:45.144Z,2.42
2022-10-04T05:16:56.231Z,2.53
2022-10-04T05:19:02.831Z,1.75
2022-10-04T05:21:27.655Z,2.15
2022-10-04T05:23:33.652Z,2.28
2022-10-04T05:25:39.893Z,2.47
2022-10-04T05:27:45.091Z,2.60
2022-10-04T05:29:56.033Z,2.70
2022-10-04T05:33:02.960Z,2.45
2022-10-04T05:35:20.232Z,2.70
2022-10-04T05:37:57.808Z,2.70
2022-10-04T05:40:15.277Z,2.53
2022-10-04T05:42:24.516Z,3.10
2022-10-04T05:44:36.167Z,2.88
2022-10-04T05:46:43.897Z,2.97
2022-10-04T05:48:49.423Z,2.85
2022-10-04T05:50:51.675Z,3.10
2022-10-04T05:55:13.241Z,3.20
2022-10-04T05:57:48.021Z,3.30
2022-10-04T06:00:07.079Z,3.53
2022-10-04T06:02:40.857Z,3.17
2022-10-04T06:05:11.300Z,3.50
2022-10-04T06:07:32.205Z,3.50
2022-10-04T06:10:05.176Z,3.60
2022-10-04T06:14:58.605Z,3.67
2022-10-04T06:17:40.875Z,3.70
2022-10-04T06:20:04.848Z,3.55
2022-10-04T06:22:16.929Z,3.47
2022-10-04T06:24:27.023Z,3.80
2022-10-04T06:26:46.087Z,3.05
2022-10-04T06:29:01.121Z,2.88
2022-10-04T06:31:38.403Z,3.47
2022-10-04T06:33:46.694Z,4.60
2022-10-04T06:36:05.328Z,3.15
2022-10-04T06:38:10.859Z,3.10
2022-10-04T06:40:30.545Z,3.50
2022-10-04T06:42:42.399Z,3.65
2022-10-04T06:44:53.486Z,3.50
2022-10-04T06:47:35.518Z,3.85
2022-10-04T06:49:54.589Z,3.75
2022-10-04T06:51:56.799Z,3.40
2022-10-04T06:54:43.980Z,3.00
2022-10-04T06:56:59.262Z,3.30
2022-10-04T06:59:17.430Z,3.22
2022-10-04T07:01:35.493Z,3.40
2022-10-04T07:03:51.332Z,3.33
2022-10-04T07:06:07.484Z,2.90
2022-10-04T07:08:34.404Z,2.97
2022-10-04T07:10:45.172Z,3.00
2022-10-04T07:13:13.090Z,2.78
2022-10-04T07:15:25.153Z,3.30
2022-10-04T07:17:33.294Z,2.95
2022-10-04T07:19:42.151Z,3.40
2022-10-04T07:22:03.676Z,3.13
2022-10-04T07:24:12.531Z,2.95
2022-10-04T07:26:24.036Z,3.00
2022-10-04T07:28:51.096Z,3.28
2022-10-04T07:31:04.124Z,2.90
2022-10-04T07:33:12.527Z,3.42
2022-10-04T07:35:32.944Z,2.97
2022-10-04T07:38:03.921Z,2.92
2022-10-04T07:40:20.105Z,3.00
2022-10-04T07:42:30.331Z,3.15
2022-10-04T07:44:39.920Z,2.60
2022-10-04T07:46:53.085Z,2.00
2022-10-04T07:48:57.802Z,2.80
2022-10-04T07:51:12.807Z,2.90
2022-10-04T07:53:30.509Z,2.65
2022-10-04T07:55:52.301Z,2.53
2022-10-04T07:58:30.411Z,2.70
2022-10-04T08:00:49.640Z,2.47
2022-10-04T08:02:58.869Z,2.40
2022-10-04T08:05:22.889Z,2.75
2022-10-04T08:07:33.746Z,2.38
2022-10-04T08:09:50.887Z,2.20
2022-10-04T08:12:35.297Z,2.95
2022-10-04T08:14:53.301Z,2.38
2022-10-04T08:16:56.516Z,1.80
2022-10-04T08:19:23.614Z,2.00
2022-10-04T08:21:55.344Z,2.67
2022-10-04T08:24:16.695Z,1.98
2022-10-04T08:26:34.121Z,2.28
2022-10-04T08:29:11.670Z,1.92
2022-10-04T08:31:28.165Z,2.10
2022-10-04T08:33:51.659Z,2.10
2022-10-04T08:36:03.325Z,2.85
2022-10-04T08:38:21.693Z,2.13
2022-10-04T08:40:45.065Z,2.20
2022-10-04T08:43:09.389Z,2.08
2022-10-04T08:45:38.413Z,2.15
2022-10-04T08:47:52.383Z,2.15
2022-10-04T08:50:19.582Z,2.13
2022-10-04T08:52:24.648Z,2.53
2022-10-04T08:54:45.500Z,2.10
2022-10-04T08:56:57.952Z,2.30
2022-10-04T09:01:50.553Z,2.10
2022-10-04T09:04:34.714Z,2.10
2022-10-04T09:06:54.990Z,2.40
2022-10-04T09:09:24.366Z,2.67
2022-10-04T09:11:48.074Z,2.50
2022-10-04T09:13:50.091Z,3.00
2022-10-04T09:15:56.302Z,2.08
2022-10-04T09:17:58.366Z,2.17
2022-10-04T09:20:37.831Z,2.63
2022-10-04T09:22:40.729Z,2.40
2022-10-04T09:25:15.132Z,2.65
2022-10-04T09:27:59.836Z,2.33
2022-10-04T09:30:35.447Z,2.40
2022-10-04T09:32:43.433Z,3.00
2022-10-04T09:34:52.682Z,2.50
2022-10-04T09:37:34.838Z,3.75
2022-10-04T09:40:47.401Z,3.17
2022-10-04T09:43:11.829Z,3.10
2022-10-04T09:45:37.552Z,3.05
2022-10-04T09:51:00.844Z,2.60
2022-10-04T09:53:56.360Z,3.67
2022-10-04T09:56:04.481Z,2.90
2022-10-04T09:58:56.582Z,2.45
2022-10-04T10:01:23.444Z,2.92
2022-10-04T10:03:49.211Z,2.95
2022-10-04T10:06:41.702Z,2.92
2022-10-04T10:08:56.545Z,2.92
2022-10-04T10:11:32.769Z,2.70
2022-10-04T10:13:59.787Z,2.60
2022-10-04T10:16:11.980Z,2.67
2022-10-04T10:18:29.540Z,3.40
2022-10-04T10:20:45.729Z,3.60
2022-10-04T10:23:22.637Z,3.60
2022-10-04T10:26:02.974Z,2.22
2022-10-04T10:28:33.209Z,3.00
2022-10-04T10:31:11.528Z,1.80
2022-10-04T10:33:38.158Z,1.65
2022-10-04T10:36:02.144Z,1.42
2022-10-04T10:38:25.975Z,0.50
2022-10-04T10:40:59.769Z,0.80
2022-10-04T10:43:07.573Z,1.10
2022-10-04T10:45:45.961Z,0.80
2022-10-04T10:48:36.025Z,0.90
2022-10-04T10:51:00.695Z,0.60
2022-10-04T10:53:30.236Z,0.77
2022-10-04T10:57:52.988Z,0.75
2022-10-04T11:00:32.686Z,1.10
2022-10-04T11:02:50.676Z,0.75
2022-10-04T11:05:30.873Z,0.47
2022-10-04T11:07:51.407Z,1.20
2022-10-04T11:10:32.463Z,0.60
2022-10-04T11:12:47.229Z,0.73
2022-10-04T11:15:07.857Z,0.70
2022-10-04T11:17:28.776Z,0.60
2022-10-04T11:20:06.129Z,0.93
2022-10-04T11:22:11.222Z,0.50
2022-10-04T11:24:44.671Z,0.70
2022-10-04T11:26:49.638Z,0.80
2022-10-04T11:29:04.191Z,0.73
2022-10-04T11:31:45.928Z,1.58
2022-10-04T11:34:18.531Z,1.00
2022-10-04T11:37:12.289Z,0.70
2022-10-04T11:39:36.353Z,0.80
2022-10-04T11:41:50.425Z,0.70
2022-10-04T11:44:20.346Z,0.90
2022-10-04T11:47:10.165Z,0.80
2022-10-04T11:49:36.815Z,0.70
2022-10-04T11:52:08.990Z,0.60
2022-10-04T11:54:27.581Z,0.80
2022-10-04T11:56:56.667Z,0.70
2022-10-04T11:59:17.904Z,0.50
2022-10-04T12:01:40.773Z,0.75
2022-10-04T12:04:21.075Z,0.60
2022-10-04T12:07:08.568Z,0.70
2022-10-04T12:09:22.606Z,0.50
2022-10-04T12:11:53.341Z,0.73
2022-10-04T12:14:42.978Z,0.50
2022-10-04T12:17:12.825Z,0.52
2022-10-04T12:20:09.903Z,0.70
2022-10-04T12:22:32.744Z,0.60
2022-10-04T12:25:33.471Z,0.80
2022-10-04T12:28:01.119Z,0.70
2022-10-04T12:30:24.106Z,0.55
2022-10-04T12:32:44.210Z,0.63
2022-10-04T12:35:05.110Z,0.60
2022-10-04T12:37:20.514Z,0.70
2022-10-04T12:39:33.327Z,0.60
2022-10-04T12:42:05.262Z,0.45
2022-10-04T12:44:10.443Z,0.40
2022-10-04T12:46:41.385Z,0.60
2022-10-04T12:49:01.662Z,1.02
2022-10-04T12:51:20.318Z,0.65
2022-10-04T12:53:47.044Z,1.05
2022-10-04T12:56:13.468Z,0.60
2022-10-04T12:58:30.281Z,0.80
2022-10-04T13:00:41.719Z,0.40
2022-10-04T13:02:44.739Z,0.60
2022-10-04T13:04:54.787Z,0.65
2022-10-04T13:07:17.095Z,1.20
2022-10-04T13:11:59.149Z,0.57
2022-10-04T13:14:04.497Z,0.70
2022-10-04T13:19:38.883Z,0.70
2022-10-04T13:21:53.447Z,0.50
2022-10-04T13:24:17.994Z,0.45
2022-10-04T13:26:53.372Z,0.57
2022-10-04T13:29:08.765Z,1.10
2022-10-04T13:31:33.268Z,0.47
2022-10-04T13:34:20.612Z,0.43
2022-10-04T13:36:43.472Z,0.60
2022-10-04T13:39:07.811Z,0.70
2022-10-04T13:41:27.903Z,0.75
2022-10-04T13:44:04.153Z,0.55
2022-10-04T13:46:41.585Z,0.82
2022-10-04T13:49:03.334Z,0.88
2022-10-04T13:51:05.641Z,0.50
2022-10-04T13:56:37.550Z,0.70
2022-10-04T13:58:56.207Z,0.85
2022-10-04T14:01:35.948Z,0.70
2022-10-04T14:03:59.210Z,0.60
2022-10-04T14:06:13.702Z,0.68
2022-10-04T14:08:51.413Z,0.60
2022-10-04T14:11:16.862Z,0.60
2022-10-04T14:13:38.718Z,0.40
2022-10-04T14:16:20.308Z,0.80
2022-10-04T14:18:43.888Z,0.75
2022-10-04T14:21:20.379Z,0.73
2022-10-04T14:23:45.581Z,0.75
2022-10-04T14:26:12.434Z,0.70
2022-10-04T14:28:35.038Z,0.98
2022-10-04T14:30:57.984Z,0.85
2022-10-04T14:33:21.460Z,0.90
2022-10-04T14:35:42.309Z,1.00
2022-10-04T14:38:26.576Z,0.90
2022-10-04T14:40:34.839Z,0.95
2022-10-04T14:42:55.247Z,0.80
2022-10-04T14:45:19.784Z,1.35
2022-10-04T14:47:42.851Z,0.70
2022-10-04T14:50:00.250Z,0.80
2022-10-04T14:52:26.272Z,1.15
2022-10-04T14:54:42.433Z,0.65
2022-10-04T14:57:18.773Z,0.82
2022-10-04T14:59:50.979Z,0.90
2022-10-04T15:02:12.078Z,0.80
2022-10-04T15:04:35.889Z,1.23
2022-10-04T15:07:02.110Z,1.67
2022-10-04T15:09:16.229Z,1.38
2022-10-04T15:11:34.739Z,1.58
2022-10-04T15:13:58.787Z,1.13
2022-10-04T15:16:16.563Z,1.23
2022-10-04T15:18:52.501Z,1.60
2022-10-04T15:21:13.882Z,1.50
2022-10-04T15:23:18.163Z,1.55
2022-10-04T15:26:10.989Z,1.58
2022-10-04T15:29:00.245Z,1.50
2022-10-04T15:31:11.253Z,1.30
2022-10-04T15:33:28.481Z,1.50
2022-10-04T15:36:25.429Z,1.48
2022-10-04T15:38:32.791Z,1.63
2022-10-04T15:40:49.808Z,1.63
2022-10-04T15:43:18.879Z,1.50
2022-10-04T15:45:31.249Z,1.52
2022-10-04T15:47:50.413Z,1.60
2022-10-04T15:50:03.207Z,1.52
2022-10-04T15:52:33.915Z,2.00
2022-10-04T15:55:10.764Z,1.50
2022-10-04T15:57:32.155Z,1.73
2022-10-04T16:00:03.810Z,1.42
2022-10-04T16:02:09.796Z,1.85
2022-10-04T16:04:51.068Z,1.95
2022-10-04T16:07:08.203Z,2.25
2022-10-04T16:09:31.214Z,1.83
2022-10-04T16:11:46.639Z,2.10
2022-10-04T16:13:51.603Z,1.70
2022-10-04T16:16:30.873Z,1.90
2022-10-04T16:19:18.115Z,2.00
2022-10-04T16:22:01.640Z,2.30
2022-10-04T16:24:42.213Z,2.22
2022-10-04T16:26:45.182Z,2.58
2022-10-04T16:29:05.353Z,2.83
2022-10-04T16:31:44.999Z,2.65
2022-10-04T16:34:07.382Z,3.03
2022-10-04T16:36:22.367Z,3.35
2022-10-04T16:38:29.003Z,2.90
2022-10-04T16:40:53.136Z,3.00
2022-10-04T16:43:32.418Z,2.40
2022-10-04T16:45:59.198Z,3.10
2022-10-04T16:48:13.725Z,2.45
2022-10-04T16:50:55.151Z,2.35
2022-10-04T16:53:24.036Z,2.63
2022-10-04T16:55:46.177Z,2.40
2022-10-04T16:58:27.324Z,2.20
2022-10-04T17:00:37.178Z,2.30
2022-10-04T17:03:14.431Z,2.40
2022-10-04T17:05:33.551Z,2.00
2022-10-04T17:07:53.302Z,2.03
2022-10-04T17:10:34.420Z,2.05
2022-10-04T17:12:46.918Z,2.40
2022-10-04T17:14:58.133Z,2.40
2022-10-04T17:17:21.854Z,2.10
2022-10-04T17:19:45.605Z,2.28
2022-10-04T17:22:24.696Z,2.30
2022-10-04T17:24:45.665Z,2.30
2022-10-04T17:27:09.577Z,3.95
2022-10-04T17:29:37.880Z,2.58
2022-10-04T17:31:44.014Z,2.60
2022-10-04T17:34:39.992Z,3.00
2022-10-04T17:36:50.326Z,2.83
2022-10-04T17:39:00.560Z,2.20
2022-10-04T17:41:14.705Z,2.38
2022-10-04T17:43:30.390Z,1.95
2022-10-04T17:45:44.446Z,2.42
2022-10-04T17:48:16.454Z,2.50
2022-10-04T17:50:52.177Z,1.70
2022-10-04T17:53:18.752Z,2.00
2022-10-04T17:55:39.462Z,1.80
2022-10-04T17:57:41.622Z,1.60
2022-10-04T18:02:04.447Z,1.70
2022-10-04T18:04:44.843Z,1.65
2022-10-04T18:07:10.419Z,1.85
2022-10-04T18:09:40.085Z,2.20
2022-10-04T18:11:48.045Z,1.73
2022-10-04T18:14:02.657Z,2.10
2022-10-04T18:16:43.959Z,2.13
2022-10-04T18:18:47.439Z,2.63
2022-10-04T18:20:52.636Z,2.30
2022-10-04T18:23:16.804Z,2.47
2022-10-04T18:25:26.288Z,2.38
2022-10-04T18:27:30.317Z,2.92
2022-10-04T18:29:41.787Z,2.15
2022-10-04T18:31:49.389Z,1.95
2022-10-04T18:33:54.215Z,2.25
2022-10-04T18:36:15.620Z,1.95
2022-10-04T18:38:31.185Z,2.30
2022-10-04T18:40:35.740Z,2.30
2022-10-04T18:42:42.200Z,2.35
2022-10-04T18:44:58.116Z,2.22
2022-10-04T18:47:02.500Z,2.00
2022-10-04T18:49:18.406Z,2.90
2022-10-04T18:51:37.873Z,2.45
2022-10-04T18:53:46.461Z,2.00
2022-10-04T18:55:58.986Z,2.25
2022-10-04T18:58:45.609Z,1.83
2022-10-04T19:01:22.888Z,2.50
2022-10-04T19:03:50.560Z,1.98
2022-10-04T19:06:31.603Z,1.90
2022-10-04T19:08:59.648Z,1.92
2022-10-04T19:11:12.794Z,2.25
2022-10-04T19:13:36.946Z,1.70
2022-10-04T19:15:41.951Z,1.85
2022-10-04T19:18:30.132Z,2.08
2022-10-04T19:20:49.005Z,2.08
2022-10-04T19:23:05.171Z,1.90
2022-10-04T19:25:30.334Z,2.10
2022-10-04T19:27:53.185Z,2.08
2022-10-04T19:32:05.527Z,2.50
2022-10-04T19:34:14.794Z,2.35
2022-10-04T19:36:22.850Z,2.40
2022-10-04T19:38:43.594Z,2.30
2022-10-04T19:40:54.171Z,2.90
2022-10-04T19:43:08.406Z,2.53
2022-10-04T19:45:16.477Z,2.90
2022-10-04T19:47:21.637Z,2.42
2022-10-04T19:49:52.862Z,2.30
2022-10-04T19:52:14.929Z,2.25
2022-10-04T19:54:40.850Z,2.35
2022-10-04T19:56:47.946Z,1.80
2022-10-04T19:59:15.806Z,2.15
2022-10-04T20:01:30.088Z,2.45
2022-10-04T20:03:32.429Z,2.17
2022-10-04T20:05:42.153Z,2.53
2022-10-04T20:08:01.671Z,2.47
2022-10-04T20:10:36.318Z,2.80
2022-10-04T20:12:40.923Z,3.45
2022-10-04T20:14:45.189Z,3.15
2022-10-04T20:16:48.067Z,3.50
2022-10-04T20:18:57.896Z,3.35
2022-10-04T20:21:03.487Z,3.22
2022-10-04T20:23:10.606Z,3.38
2022-10-04T20:25:41.905Z,2.88
2022-10-04T20:27:46.707Z,2.83
2022-10-04T20:29:56.206Z,2.80
2022-10-04T20:31:58.672Z,2.58
2022-10-04T20:34:32.355Z,2.10
2022-10-04T20:36:55.047Z,2.28
2022-10-04T20:39:01.967Z,1.92
2022-10-04T20:41:07.529Z,2.53
2022-10-04T20:43:15.986Z,2.50
2022-10-04T20:45:24.226Z,2.33
2022-10-04T20:47:40.869Z,1.80
2022-10-04T20:49:50.209Z,2.10
2022-10-04T20:51:56.078Z,2.40
2022-10-04T20:54:06.558Z,1.75
2022-10-04T20:56:44.219Z,2.15
2022-10-04T20:58:57.458Z,2.00
2022-10-04T21:01:49.125Z,2.15
2022-10-04T21:04:46.550Z,2.17
2022-10-04T21:06:52.042Z,2.00
2022-10-04T21:08:54.342Z,2.13
2022-10-04T21:13:43.270Z,2.63
2022-10-04T21:15:57.755Z,2.03
2022-10-04T21:18:09.813Z,2.92
2022-10-04T21:20:46.483Z,2.38
2022-10-04T21:23:07.235Z,2.67
2022-10-04T21:25:33.096Z,2.22
2022-10-04T21:27:37.557Z,2.20
2022-10-04T21:29:41.152Z,2.25
2022-10-04T21:31:43.713Z,2.00
2022-10-04T21:33:46.130Z,1.90
2022-10-04T21:37:54.371Z,2.38
2022-10-04T21:39:56.531Z,1.95
2022-10-04T21:41:58.708Z,1.88
2022-10-04T21:44:00.993Z,1.80
2022-10-04T21:46:03.337Z,1.88
2022-10-04T21:50:07.671Z,1.43
2022-10-04T21:52:09.866Z,1.58
2022-10-04T21:54:12.225Z,1.70
2022-10-04T21:58:16.879Z,1.55
2022-10-04T22:02:21.611Z,2.28
2022-10-04T22:04:24.208Z,2.10
2022-10-04T22:06:26.236Z,1.90
2022-10-04T22:08:29.027Z,1.80
2022-10-04T22:10:31.258Z,1.67
2022-10-04T22:12:33.372Z,2.38
2022-10-04T22:14:35.427Z,1.73
2022-10-04T22:16:37.763Z,2.05
2022-10-04T22:18:39.809Z,1.88
2022-10-04T22:20:41.970Z,2.35
2022-10-04T22:22:44.039Z,1.80
2022-10-04T22:24:46.202Z,2.25
2022-10-04T22:26:49.223Z,2.20
2022-10-04T22:28:54.730Z,2.25
2022-10-04T22:30:57.315Z,2.08
2022-10-04T22:33:01.996Z,2.13
2022-10-04T22:35:16.582Z,1.80
2022-10-04T22:37:24.540Z,2.25
2022-10-04T22:39:28.033Z,2.17
2022-10-04T22:41:42.217Z,1.90
2022-10-04T22:43:45.831Z,1.90
2022-10-04T22:45:48.186Z,1.85
2022-10-04T22:49:57.767Z,1.67
2022-10-04T22:52:02.736Z,1.52
2022-10-04T22:54:11.949Z,1.65
2022-10-04T22:56:15.316Z,1.98
2022-10-04T22:58:18.408Z,1.75
2022-10-04T23:00:20.578Z,1.98
2022-10-04T23:04:32.003Z,1.88
2022-10-04T23:06:36.907Z,1.83
2022-10-04T23:08:39.751Z,3.42
2022-10-04T23:10:42.546Z,2.25
2022-10-04T23:12:49.365Z,2.22
2022-10-04T23:14:54.223Z,1.83
2022-10-04T23:16:56.358Z,1.88
2022-10-04T23:19:10.852Z,2.72
2022-10-04T23:21:24.308Z,1.83
2022-10-04T23:23:28.818Z,2.45
2022-10-04T23:25:31.359Z,1.67
2022-10-04T23:27:34.280Z,1.58
2022-10-04T23:29:36.403Z,1.65
2022-10-04T23:31:38.723Z,1.67
2022-10-04T23:33:41.713Z,2.30
2022-10-04T23:35:44.415Z,2.17
2022-10-04T23:37:48.294Z,1.88
2022-10-04T23:39:51.064Z,1.73
2022-10-04T23:41:54.936Z,1.88
2022-10-04T23:43:57.130Z,1.80
2022-10-04T23:45:59.437Z,1.40
2022-10-04T23:50:28.666Z,1.40
2022-10-04T23:52:38.263Z,1.90
2022-10-04T23:54:40.410Z,1.80
2022-10-04T23:56:44.609Z,2.00
2022-10-04T23:58:47.388Z,1.80
